sensor_id;sensor_type;location;lat;lon;timestamp;temperature;humidity
16285;DHT22;8250;52.426;9.450;2022-07-11T00:02:03;16.20;99.90
16285;DHT22;8250;52.426;9.450;2022-07-11T00:04:31;16.10;99.90
16285;DHT22;8250;52.426;9.450;2022-07-11T00:06:58;16.20;99.90
16285;DHT22;8250;52.426;9.450;2022-07-11T00:09:25;16.20;99.90
16285;DHT22;8250;52.426;9.450;2022-07-11T00:11:52;16.10;99.90
16285;DHT22;8250;52.426;9.450;2022-07-11T00:14:20;16.10;99.90
16285;DHT22;8250;52.426;9.450;2022-07-11T00:16:48;16.10;99.90
16285;DHT22;8250;52.426;9.450;2022-07-11T00:19:15;16.10;99.90
16285;DHT22;8250;52.426;9.450;2022-07-11T00:21:42;16.10;99.90
16285;DHT22;8250;52.426;9.450;2022-07-11T00:24:09;16.20;99.90
16285;DHT22;8250;52.426;9.450;2022-07-11T00:26:37;16.10;99.90
16285;DHT22;8250;52.426;9.450;2022-07-11T00:29:05;16.20;99.90
16285;DHT22;8250;52.426;9.450;2022-07-11T00:31:33;16.20;99.90
16285;DHT22;8250;52.426;9.450;2022-07-11T00:34:00;16.20;99.90
16285;DHT22;8250;52.426;9.450;2022-07-11T00:36:27;16.20;99.90
16285;DHT22;8250;52.426;9.450;2022-07-11T00:38:54;16.10;99.90
16285;DHT22;8250;52.426;9.450;2022-07-11T00:41:21;16.10;99.90
16285;DHT22;8250;52.426;9.450;2022-07-11T00:43:52;16.20;99.90
16285;DHT22;8250;52.426;9.450;2022-07-11T00:46:19;16.20;99.90
16285;DHT22;8250;52.426;9.450;2022-07-11T00:48:48;16.10;99.90
16285;DHT22;8250;52.426;9.450;2022-07-11T00:51:16;16.10;99.90
16285;DHT22;8250;52.426;9.450;2022-07-11T00:53:43;16.10;99.90
16285;DHT22;8250;52.426;9.450;2022-07-11T00:56:10;16.10;99.90
16285;DHT22;8250;52.426;9.450;2022-07-11T00:58:37;16.10;99.90
16285;DHT22;8250;52.426;9.450;2022-07-11T01:01:05;16.10;99.90
16285;DHT22;8250;52.426;9.450;2022-07-11T01:03:34;16.10;99.90
16285;DHT22;8250;52.426;9.450;2022-07-11T01:06:03;16.10;99.90
16285;DHT22;8250;52.426;9.450;2022-07-11T01:08:30;16.10;99.90
16285;DHT22;8250;52.426;9.450;2022-07-11T01:11:00;16.10;99.90
16285;DHT22;8250;52.426;9.450;2022-07-11T01:13:27;16.10;99.90
16285;DHT22;8250;52.426;9.450;2022-07-11T01:16:07;16.10;99.90
16285;DHT22;8250;52.426;9.450;2022-07-11T01:18:33;16.10;99.90
16285;DHT22;8250;52.426;9.450;2022-07-11T01:21:03;16.10;99.90
16285;DHT22;8250;52.426;9.450;2022-07-11T01:23:35;16.10;99.90
16285;DHT22;8250;52.426;9.450;2022-07-11T01:26:02;16.10;99.90
16285;DHT22;8250;52.426;9.450;2022-07-11T01:28:29;16.10;99.90
16285;DHT22;8250;52.426;9.450;2022-07-11T01:30:56;16.10;99.90
16285;DHT22;8250;52.426;9.450;2022-07-11T01:33:23;16.10;99.90
16285;DHT22;8250;52.426;9.450;2022-07-11T01:35:49;16.00;99.90
16285;DHT22;8250;52.426;9.450;2022-07-11T01:38:16;16.00;99.90
16285;DHT22;8250;52.426;9.450;2022-07-11T01:40:45;16.00;99.90
16285;DHT22;8250;52.426;9.450;2022-07-11T01:43:11;16.00;99.90
16285;DHT22;8250;52.426;9.450;2022-07-11T01:45:38;16.00;99.90
16285;DHT22;8250;52.426;9.450;2022-07-11T01:48:05;16.00;99.90
16285;DHT22;8250;52.426;9.450;2022-07-11T01:50:33;16.00;99.90
16285;DHT22;8250;52.426;9.450;2022-07-11T01:53:00;16.00;99.90
16285;DHT22;8250;52.426;9.450;2022-07-11T01:55:27;16.00;99.90
16285;DHT22;8250;52.426;9.450;2022-07-11T01:57:55;16.10;99.90
16285;DHT22;8250;52.426;9.450;2022-07-11T02:00:22;16.00;99.90
16285;DHT22;8250;52.426;9.450;2022-07-11T02:02:49;16.00;99.90
16285;DHT22;8250;52.426;9.450;2022-07-11T02:05:16;16.10;99.90
16285;DHT22;8250;52.426;9.450;2022-07-11T02:07:43;16.10;99.90
16285;DHT22;8250;52.426;9.450;2022-07-11T02:10:28;16.00;99.90
16285;DHT22;8250;52.426;9.450;2022-07-11T02:12:56;16.00;99.90
16285;DHT22;8250;52.426;9.450;2022-07-11T02:15:24;16.00;99.90
16285;DHT22;8250;52.426;9.450;2022-07-11T02:17:51;16.00;99.90
16285;DHT22;8250;52.426;9.450;2022-07-11T02:20:18;16.00;99.90
16285;DHT22;8250;52.426;9.450;2022-07-11T02:22:46;16.00;99.90
16285;DHT22;8250;52.426;9.450;2022-07-11T02:25:15;16.00;99.90
16285;DHT22;8250;52.426;9.450;2022-07-11T02:27:42;16.00;99.90
16285;DHT22;8250;52.426;9.450;2022-07-11T02:30:11;16.00;99.90
16285;DHT22;8250;52.426;9.450;2022-07-11T02:32:38;16.00;99.90
16285;DHT22;8250;52.426;9.450;2022-07-11T02:35:06;16.00;99.90
16285;DHT22;8250;52.426;9.450;2022-07-11T02:37:33;16.10;99.90
16285;DHT22;8250;52.426;9.450;2022-07-11T02:40:00;16.00;99.90
16285;DHT22;8250;52.426;9.450;2022-07-11T02:42:26;16.00;99.90
16285;DHT22;8250;52.426;9.450;2022-07-11T02:44:53;16.00;99.90
16285;DHT22;8250;52.426;9.450;2022-07-11T02:47:22;16.00;99.90
16285;DHT22;8250;52.426;9.450;2022-07-11T02:49:49;16.00;99.90
16285;DHT22;8250;52.426;9.450;2022-07-11T02:52:16;16.00;99.90
16285;DHT22;8250;52.426;9.450;2022-07-11T02:54:43;16.00;99.90
16285;DHT22;8250;52.426;9.450;2022-07-11T02:57:10;16.00;99.90
16285;DHT22;8250;52.426;9.450;2022-07-11T02:59:37;16.00;99.90
16285;DHT22;8250;52.426;9.450;2022-07-11T03:02:04;16.00;99.90
16285;DHT22;8250;52.426;9.450;2022-07-11T03:04:33;16.00;99.90
16285;DHT22;8250;52.426;9.450;2022-07-11T03:07:00;16.00;99.90
16285;DHT22;8250;52.426;9.450;2022-07-11T03:09:27;16.00;99.90
16285;DHT22;8250;52.426;9.450;2022-07-11T03:11:54;16.00;99.90
16285;DHT22;8250;52.426;9.450;2022-07-11T03:14:21;16.00;99.90
16285;DHT22;8250;52.426;9.450;2022-07-11T03:16:48;16.10;99.90
16285;DHT22;8250;52.426;9.450;2022-07-11T03:19:14;16.10;99.90
16285;DHT22;8250;52.426;9.450;2022-07-11T03:21:43;16.10;99.90
16285;DHT22;8250;52.426;9.450;2022-07-11T03:24:10;16.10;99.90
16285;DHT22;8250;52.426;9.450;2022-07-11T03:26:36;16.10;99.90
16285;DHT22;8250;52.426;9.450;2022-07-11T03:29:04;16.10;99.90
16285;DHT22;8250;52.426;9.450;2022-07-11T03:31:33;16.00;99.90
16285;DHT22;8250;52.426;9.450;2022-07-11T03:34:00;16.00;99.90
16285;DHT22;8250;52.426;9.450;2022-07-11T03:36:28;16.00;99.90
16285;DHT22;8250;52.426;9.450;2022-07-11T03:38:56;16.00;99.90
16285;DHT22;8250;52.426;9.450;2022-07-11T03:41:24;16.00;99.90
16285;DHT22;8250;52.426;9.450;2022-07-11T03:43:51;16.00;99.90
16285;DHT22;8250;52.426;9.450;2022-07-11T03:46:18;16.00;99.90
16285;DHT22;8250;52.426;9.450;2022-07-11T03:48:45;16.00;99.90
16285;DHT22;8250;52.426;9.450;2022-07-11T03:51:12;16.00;99.90
16285;DHT22;8250;52.426;9.450;2022-07-11T03:53:39;16.00;99.90
16285;DHT22;8250;52.426;9.450;2022-07-11T03:56:07;16.00;99.90
16285;DHT22;8250;52.426;9.450;2022-07-11T03:58:34;16.00;99.90
16285;DHT22;8250;52.426;9.450;2022-07-11T04:01:01;15.90;99.90
16285;DHT22;8250;52.426;9.450;2022-07-11T04:03:28;16.00;99.90
16285;DHT22;8250;52.426;9.450;2022-07-11T04:05:55;16.00;99.90
16285;DHT22;8250;52.426;9.450;2022-07-11T04:08:22;16.00;99.90
16285;DHT22;8250;52.426;9.450;2022-07-11T04:10:49;16.00;99.90
16285;DHT22;8250;52.426;9.450;2022-07-11T04:13:17;16.00;99.90
16285;DHT22;8250;52.426;9.450;2022-07-11T04:15:44;16.00;99.90
16285;DHT22;8250;52.426;9.450;2022-07-11T04:18:11;16.00;99.90
16285;DHT22;8250;52.426;9.450;2022-07-11T04:20:38;16.00;99.90
16285;DHT22;8250;52.426;9.450;2022-07-11T04:23:05;16.00;99.90
16285;DHT22;8250;52.426;9.450;2022-07-11T04:25:33;16.00;99.90
16285;DHT22;8250;52.426;9.450;2022-07-11T04:28:00;16.00;99.90
16285;DHT22;8250;52.426;9.450;2022-07-11T04:30:28;16.00;99.90
16285;DHT22;8250;52.426;9.450;2022-07-11T04:32:55;16.00;99.90
16285;DHT22;8250;52.426;9.450;2022-07-11T04:35:22;16.00;99.90
16285;DHT22;8250;52.426;9.450;2022-07-11T04:37:49;16.10;99.90
16285;DHT22;8250;52.426;9.450;2022-07-11T04:40:17;16.10;99.90
16285;DHT22;8250;52.426;9.450;2022-07-11T04:42:44;16.10;99.90
16285;DHT22;8250;52.426;9.450;2022-07-11T04:45:10;16.10;99.90
16285;DHT22;8250;52.426;9.450;2022-07-11T04:47:39;16.10;99.90
16285;DHT22;8250;52.426;9.450;2022-07-11T04:50:07;16.10;99.90
16285;DHT22;8250;52.426;9.450;2022-07-11T04:52:34;16.20;99.90
16285;DHT22;8250;52.426;9.450;2022-07-11T04:55:01;16.20;99.90
16285;DHT22;8250;52.426;9.450;2022-07-11T04:57:28;16.20;99.90
16285;DHT22;8250;52.426;9.450;2022-07-11T04:59:55;16.20;99.90
16285;DHT22;8250;52.426;9.450;2022-07-11T05:02:22;16.20;99.90
16285;DHT22;8250;52.426;9.450;2022-07-11T05:04:50;16.20;99.90
16285;DHT22;8250;52.426;9.450;2022-07-11T05:07:17;16.30;99.90
16285;DHT22;8250;52.426;9.450;2022-07-11T05:09:44;16.30;99.90
16285;DHT22;8250;52.426;9.450;2022-07-11T05:12:11;16.30;99.90
16285;DHT22;8250;52.426;9.450;2022-07-11T05:14:37;16.30;99.90
16285;DHT22;8250;52.426;9.450;2022-07-11T05:17:04;16.40;99.90
16285;DHT22;8250;52.426;9.450;2022-07-11T05:19:31;16.40;99.90
16285;DHT22;8250;52.426;9.450;2022-07-11T05:22:00;16.40;99.90
16285;DHT22;8250;52.426;9.450;2022-07-11T05:24:26;16.50;99.90
16285;DHT22;8250;52.426;9.450;2022-07-11T05:26:53;16.50;99.90
16285;DHT22;8250;52.426;9.450;2022-07-11T05:29:20;16.60;99.90
16285;DHT22;8250;52.426;9.450;2022-07-11T05:31:48;16.60;99.90
16285;DHT22;8250;52.426;9.450;2022-07-11T05:34:18;16.70;99.90
16285;DHT22;8250;52.426;9.450;2022-07-11T05:36:45;16.70;99.90
16285;DHT22;8250;52.426;9.450;2022-07-11T05:39:14;16.80;99.90
16285;DHT22;8250;52.426;9.450;2022-07-11T05:41:41;16.90;99.90
16285;DHT22;8250;52.426;9.450;2022-07-11T05:44:08;17.10;99.90
16285;DHT22;8250;52.426;9.450;2022-07-11T05:46:36;17.20;99.90
16285;DHT22;8250;52.426;9.450;2022-07-11T05:49:05;17.30;99.90
16285;DHT22;8250;52.426;9.450;2022-07-11T05:51:32;17.40;99.90
16285;DHT22;8250;52.426;9.450;2022-07-11T05:53:59;17.40;99.90
16285;DHT22;8250;52.426;9.450;2022-07-11T05:56:28;17.50;99.90
16285;DHT22;8250;52.426;9.450;2022-07-11T05:58:56;17.40;99.90
16285;DHT22;8250;52.426;9.450;2022-07-11T06:01:23;17.50;99.90
16285;DHT22;8250;52.426;9.450;2022-07-11T06:03:51;17.50;99.90
16285;DHT22;8250;52.426;9.450;2022-07-11T06:06:18;17.50;99.90
16285;DHT22;8250;52.426;9.450;2022-07-11T06:08:45;17.50;99.90
16285;DHT22;8250;52.426;9.450;2022-07-11T06:11:13;17.50;99.90
16285;DHT22;8250;52.426;9.450;2022-07-11T06:13:43;17.50;99.90
16285;DHT22;8250;52.426;9.450;2022-07-11T06:16:11;17.50;99.90
16285;DHT22;8250;52.426;9.450;2022-07-11T06:18:38;17.50;99.90
16285;DHT22;8250;52.426;9.450;2022-07-11T06:21:05;17.50;99.90
16285;DHT22;8250;52.426;9.450;2022-07-11T06:23:33;17.50;99.90
16285;DHT22;8250;52.426;9.450;2022-07-11T06:26:01;17.50;99.90
16285;DHT22;8250;52.426;9.450;2022-07-11T06:28:29;17.50;99.90
16285;DHT22;8250;52.426;9.450;2022-07-11T06:30:57;17.50;99.90
16285;DHT22;8250;52.426;9.450;2022-07-11T06:33:24;17.50;99.90
16285;DHT22;8250;52.426;9.450;2022-07-11T06:35:51;17.60;99.90
16285;DHT22;8250;52.426;9.450;2022-07-11T06:38:18;17.60;99.90
16285;DHT22;8250;52.426;9.450;2022-07-11T06:40:46;17.60;99.90
16285;DHT22;8250;52.426;9.450;2022-07-11T06:43:13;17.70;99.90
16285;DHT22;8250;52.426;9.450;2022-07-11T06:45:40;17.70;99.90
16285;DHT22;8250;52.426;9.450;2022-07-11T06:48:08;17.70;99.90
16285;DHT22;8250;52.426;9.450;2022-07-11T06:50:35;17.80;99.90
16285;DHT22;8250;52.426;9.450;2022-07-11T06:53:03;17.80;99.90
16285;DHT22;8250;52.426;9.450;2022-07-11T06:55:30;17.90;99.90
16285;DHT22;8250;52.426;9.450;2022-07-11T06:57:57;17.90;99.90
16285;DHT22;8250;52.426;9.450;2022-07-11T07:00:24;17.90;99.90
16285;DHT22;8250;52.426;9.450;2022-07-11T07:02:54;18.00;99.90
16285;DHT22;8250;52.426;9.450;2022-07-11T07:05:25;18.00;99.90
16285;DHT22;8250;52.426;9.450;2022-07-11T07:07:53;18.00;99.90
16285;DHT22;8250;52.426;9.450;2022-07-11T07:10:21;17.90;99.90
16285;DHT22;8250;52.426;9.450;2022-07-11T07:12:48;17.90;99.90
16285;DHT22;8250;52.426;9.450;2022-07-11T07:15:15;17.90;99.90
16285;DHT22;8250;52.426;9.450;2022-07-11T07:17:41;17.90;99.90
16285;DHT22;8250;52.426;9.450;2022-07-11T07:20:09;17.90;99.90
16285;DHT22;8250;52.426;9.450;2022-07-11T07:22:39;17.90;99.90
16285;DHT22;8250;52.426;9.450;2022-07-11T07:25:07;17.90;99.90
16285;DHT22;8250;52.426;9.450;2022-07-11T07:27:35;17.90;99.90
16285;DHT22;8250;52.426;9.450;2022-07-11T07:30:02;17.90;99.90
16285;DHT22;8250;52.426;9.450;2022-07-11T07:32:29;17.90;99.90
16285;DHT22;8250;52.426;9.450;2022-07-11T07:34:56;18.00;99.90
16285;DHT22;8250;52.426;9.450;2022-07-11T07:37:24;18.00;99.90
16285;DHT22;8250;52.426;9.450;2022-07-11T07:39:52;18.00;99.90
16285;DHT22;8250;52.426;9.450;2022-07-11T07:42:19;18.00;99.90
16285;DHT22;8250;52.426;9.450;2022-07-11T07:44:46;18.00;99.90
16285;DHT22;8250;52.426;9.450;2022-07-11T07:47:13;18.00;99.90
16285;DHT22;8250;52.426;9.450;2022-07-11T07:49:40;18.00;99.90
16285;DHT22;8250;52.426;9.450;2022-07-11T07:52:07;18.10;99.90
16285;DHT22;8250;52.426;9.450;2022-07-11T07:54:33;18.10;99.90
16285;DHT22;8250;52.426;9.450;2022-07-11T07:57:02;18.10;99.90
16285;DHT22;8250;52.426;9.450;2022-07-11T07:59:29;18.10;99.90
16285;DHT22;8250;52.426;9.450;2022-07-11T08:01:56;18.00;99.90
16285;DHT22;8250;52.426;9.450;2022-07-11T08:04:22;18.00;99.90
16285;DHT22;8250;52.426;9.450;2022-07-11T08:06:49;18.00;99.90
16285;DHT22;8250;52.426;9.450;2022-07-11T08:09:16;18.00;99.90
16285;DHT22;8250;52.426;9.450;2022-07-11T08:11:43;18.00;99.90
16285;DHT22;8250;52.426;9.450;2022-07-11T08:14:11;18.00;99.90
16285;DHT22;8250;52.426;9.450;2022-07-11T08:16:38;17.90;99.90
16285;DHT22;8250;52.426;9.450;2022-07-11T08:19:06;18.00;99.90
16285;DHT22;8250;52.426;9.450;2022-07-11T08:21:34;18.00;99.90
16285;DHT22;8250;52.426;9.450;2022-07-11T08:24:02;17.90;99.90
16285;DHT22;8250;52.426;9.450;2022-07-11T08:26:29;18.00;99.90
16285;DHT22;8250;52.426;9.450;2022-07-11T08:28:56;18.00;99.90
16285;DHT22;8250;52.426;9.450;2022-07-11T08:31:25;18.00;99.90
16285;DHT22;8250;52.426;9.450;2022-07-11T08:33:52;18.00;99.90
16285;DHT22;8250;52.426;9.450;2022-07-11T08:36:19;18.00;99.90
16285;DHT22;8250;52.426;9.450;2022-07-11T08:38:46;17.90;99.90
16285;DHT22;8250;52.426;9.450;2022-07-11T08:41:14;17.80;99.90
16285;DHT22;8250;52.426;9.450;2022-07-11T08:43:42;17.90;99.90
16285;DHT22;8250;52.426;9.450;2022-07-11T08:46:10;17.80;99.90
16285;DHT22;8250;52.426;9.450;2022-07-11T08:48:39;17.80;99.90
16285;DHT22;8250;52.426;9.450;2022-07-11T08:51:08;17.80;99.90
16285;DHT22;8250;52.426;9.450;2022-07-11T08:53:39;17.70;99.90
16285;DHT22;8250;52.426;9.450;2022-07-11T08:56:08;17.70;99.90
16285;DHT22;8250;52.426;9.450;2022-07-11T08:58:43;17.60;99.90
16285;DHT22;8250;52.426;9.450;2022-07-11T09:01:12;17.60;99.90
16285;DHT22;8250;52.426;9.450;2022-07-11T09:03:41;17.50;99.90
16285;DHT22;8250;52.426;9.450;2022-07-11T09:06:09;17.50;99.90
16285;DHT22;8250;52.426;9.450;2022-07-11T09:08:37;17.60;99.90
16285;DHT22;8250;52.426;9.450;2022-07-11T09:11:05;17.60;99.90
16285;DHT22;8250;52.426;9.450;2022-07-11T09:13:32;17.70;99.90
16285;DHT22;8250;52.426;9.450;2022-07-11T09:16:04;17.70;99.90
16285;DHT22;8250;52.426;9.450;2022-07-11T09:18:33;17.80;99.90
16285;DHT22;8250;52.426;9.450;2022-07-11T09:21:03;17.90;99.90
16285;DHT22;8250;52.426;9.450;2022-07-11T09:23:48;17.80;99.90
16285;DHT22;8250;52.426;9.450;2022-07-11T09:26:35;18.00;99.90
16285;DHT22;8250;52.426;9.450;2022-07-11T09:29:07;18.10;99.90
16285;DHT22;8250;52.426;9.450;2022-07-11T09:31:36;18.20;99.90
16285;DHT22;8250;52.426;9.450;2022-07-11T09:34:05;18.20;99.90
16285;DHT22;8250;52.426;9.450;2022-07-11T09:36:40;18.30;99.90
16285;DHT22;8250;52.426;9.450;2022-07-11T09:39:09;18.30;99.90
16285;DHT22;8250;52.426;9.450;2022-07-11T09:41:37;18.40;99.90
16285;DHT22;8250;52.426;9.450;2022-07-11T09:44:09;18.50;99.90
16285;DHT22;8250;52.426;9.450;2022-07-11T09:46:36;18.40;99.90
16285;DHT22;8250;52.426;9.450;2022-07-11T09:49:04;18.50;99.90
16285;DHT22;8250;52.426;9.450;2022-07-11T09:51:32;18.60;99.90
16285;DHT22;8250;52.426;9.450;2022-07-11T09:54:01;18.60;99.90
16285;DHT22;8250;52.426;9.450;2022-07-11T09:56:38;18.70;99.90
16285;DHT22;8250;52.426;9.450;2022-07-11T09:59:07;18.70;99.90
16285;DHT22;8250;52.426;9.450;2022-07-11T10:01:34;18.80;99.90
16285;DHT22;8250;52.426;9.450;2022-07-11T10:04:03;18.80;99.90
16285;DHT22;8250;52.426;9.450;2022-07-11T10:06:30;18.90;99.90
16285;DHT22;8250;52.426;9.450;2022-07-11T10:08:57;19.00;99.90
16285;DHT22;8250;52.426;9.450;2022-07-11T10:11:26;19.00;99.90
16285;DHT22;8250;52.426;9.450;2022-07-11T10:13:53;19.00;99.90
16285;DHT22;8250;52.426;9.450;2022-07-11T10:16:34;19.00;99.90
16285;DHT22;8250;52.426;9.450;2022-07-11T10:19:20;19.00;99.90
16285;DHT22;8250;52.426;9.450;2022-07-11T10:21:56;19.10;99.90
16285;DHT22;8250;52.426;9.450;2022-07-11T10:24:36;19.10;99.90
16285;DHT22;8250;52.426;9.450;2022-07-11T10:27:13;19.10;99.90
16285;DHT22;8250;52.426;9.450;2022-07-11T10:29:45;19.00;99.90
16285;DHT22;8250;52.426;9.450;2022-07-11T10:32:15;19.00;99.90
16285;DHT22;8250;52.426;9.450;2022-07-11T10:34:43;18.90;99.90
16285;DHT22;8250;52.426;9.450;2022-07-11T10:37:10;19.00;99.90
16285;DHT22;8250;52.426;9.450;2022-07-11T10:39:38;19.00;99.90
16285;DHT22;8250;52.426;9.450;2022-07-11T10:42:20;19.00;99.90
16285;DHT22;8250;52.426;9.450;2022-07-11T10:44:49;18.90;99.90
16285;DHT22;8250;52.426;9.450;2022-07-11T10:47:32;19.00;99.90
16285;DHT22;8250;52.426;9.450;2022-07-11T10:50:13;18.90;99.90
16285;DHT22;8250;52.426;9.450;2022-07-11T10:52:48;18.80;99.90
16285;DHT22;8250;52.426;9.450;2022-07-11T10:55:31;18.70;99.90
16285;DHT22;8250;52.426;9.450;2022-07-11T10:58:07;18.70;99.90
16285;DHT22;8250;52.426;9.450;2022-07-11T11:00:35;18.60;99.90
16285;DHT22;8250;52.426;9.450;2022-07-11T11:03:04;18.70;99.90
16285;DHT22;8250;52.426;9.450;2022-07-11T11:05:46;18.60;99.90
16285;DHT22;8250;52.426;9.450;2022-07-11T11:08:40;18.70;99.90
16285;DHT22;8250;52.426;9.450;2022-07-11T11:11:37;18.70;99.90
16285;DHT22;8250;52.426;9.450;2022-07-11T11:14:19;18.80;99.90
16285;DHT22;8250;52.426;9.450;2022-07-11T11:16:47;18.70;99.90
16285;DHT22;8250;52.426;9.450;2022-07-11T11:22:19;18.90;99.90
16285;DHT22;8250;52.426;9.450;2022-07-11T11:24:48;18.90;99.90
16285;DHT22;8250;52.426;9.450;2022-07-11T11:27:17;19.00;99.90
16285;DHT22;8250;52.426;9.450;2022-07-11T11:29:49;19.00;99.90
16285;DHT22;8250;52.426;9.450;2022-07-11T11:32:17;19.00;99.90
16285;DHT22;8250;52.426;9.450;2022-07-11T11:34:44;19.00;99.90
16285;DHT22;8250;52.426;9.450;2022-07-11T11:37:12;19.00;99.90
16285;DHT22;8250;52.426;9.450;2022-07-11T11:39:41;19.00;99.90
16285;DHT22;8250;52.426;9.450;2022-07-11T11:42:11;18.90;99.90
16285;DHT22;8250;52.426;9.450;2022-07-11T11:44:54;18.80;99.90
16285;DHT22;8250;52.426;9.450;2022-07-11T11:47:22;18.80;99.90
16285;DHT22;8250;52.426;9.450;2022-07-11T11:49:50;18.80;99.90
16285;DHT22;8250;52.426;9.450;2022-07-11T11:52:18;18.80;99.90
16285;DHT22;8250;52.426;9.450;2022-07-11T11:54:51;18.90;99.90
16285;DHT22;8250;52.426;9.450;2022-07-11T11:57:20;19.00;99.90
16285;DHT22;8250;52.426;9.450;2022-07-11T11:59:48;19.10;99.90
16285;DHT22;8250;52.426;9.450;2022-07-11T12:02:23;19.20;99.90
16285;DHT22;8250;52.426;9.450;2022-07-11T12:04:50;19.10;99.90
16285;DHT22;8250;52.426;9.450;2022-07-11T12:07:25;19.20;99.90
16285;DHT22;8250;52.426;9.450;2022-07-11T12:09:54;19.20;99.90
16285;DHT22;8250;52.426;9.450;2022-07-11T12:12:24;19.10;99.90
16285;DHT22;8250;52.426;9.450;2022-07-11T12:15:23;18.90;99.90
16285;DHT22;8250;52.426;9.450;2022-07-11T12:17:55;18.80;99.90
16285;DHT22;8250;52.426;9.450;2022-07-11T12:20:35;18.90;99.90
16285;DHT22;8250;52.426;9.450;2022-07-11T12:23:04;18.80;99.90
16285;DHT22;8250;52.426;9.450;2022-07-11T12:25:31;18.70;99.90
16285;DHT22;8250;52.426;9.450;2022-07-11T12:27:58;18.70;99.90
16285;DHT22;8250;52.426;9.450;2022-07-11T12:30:25;18.70;99.90
16285;DHT22;8250;52.426;9.450;2022-07-11T12:33:10;18.70;99.90
16285;DHT22;8250;52.426;9.450;2022-07-11T12:35:53;18.80;99.90
16285;DHT22;8250;52.426;9.450;2022-07-11T12:38:21;18.80;99.90
16285;DHT22;8250;52.426;9.450;2022-07-11T12:40:59;18.90;99.90
16285;DHT22;8250;52.426;9.450;2022-07-11T12:43:48;19.00;99.90
16285;DHT22;8250;52.426;9.450;2022-07-11T12:46:34;19.10;99.90
16285;DHT22;8250;52.426;9.450;2022-07-11T12:49:04;19.20;99.90
16285;DHT22;8250;52.426;9.450;2022-07-11T12:51:33;19.30;99.90
16285;DHT22;8250;52.426;9.450;2022-07-11T12:54:04;19.30;99.90
16285;DHT22;8250;52.426;9.450;2022-07-11T12:56:32;19.40;99.90
16285;DHT22;8250;52.426;9.450;2022-07-11T12:58:59;19.50;99.90
16285;DHT22;8250;52.426;9.450;2022-07-11T13:01:27;19.50;99.90
16285;DHT22;8250;52.426;9.450;2022-07-11T13:03:54;19.60;99.90
16285;DHT22;8250;52.426;9.450;2022-07-11T13:06:23;19.60;99.90
16285;DHT22;8250;52.426;9.450;2022-07-11T13:09:04;19.60;99.90
16285;DHT22;8250;52.426;9.450;2022-07-11T13:11:31;19.60;99.90
16285;DHT22;8250;52.426;9.450;2022-07-11T13:13:58;19.50;99.90
16285;DHT22;8250;52.426;9.450;2022-07-11T13:16:25;19.30;99.90
16285;DHT22;8250;52.426;9.450;2022-07-11T13:18:52;19.20;99.90
16285;DHT22;8250;52.426;9.450;2022-07-11T13:21:19;19.10;99.90
16285;DHT22;8250;52.426;9.450;2022-07-11T13:23:48;19.10;99.90
16285;DHT22;8250;52.426;9.450;2022-07-11T13:26:15;18.90;99.90
16285;DHT22;8250;52.426;9.450;2022-07-11T13:28:42;18.90;99.90
16285;DHT22;8250;52.426;9.450;2022-07-11T13:31:09;18.80;99.90
16285;DHT22;8250;52.426;9.450;2022-07-11T13:33:35;18.80;99.90
16285;DHT22;8250;52.426;9.450;2022-07-11T13:36:04;18.80;99.90
16285;DHT22;8250;52.426;9.450;2022-07-11T13:38:31;18.90;99.90
16285;DHT22;8250;52.426;9.450;2022-07-11T13:40:59;18.90;99.90
16285;DHT22;8250;52.426;9.450;2022-07-11T13:43:26;19.00;99.90
16285;DHT22;8250;52.426;9.450;2022-07-11T13:45:54;19.10;99.90
16285;DHT22;8250;52.426;9.450;2022-07-11T13:48:21;19.20;99.90
16285;DHT22;8250;52.426;9.450;2022-07-11T13:50:48;19.20;99.90
16285;DHT22;8250;52.426;9.450;2022-07-11T13:53:15;19.30;99.90
16285;DHT22;8250;52.426;9.450;2022-07-11T13:55:43;19.30;99.90
16285;DHT22;8250;52.426;9.450;2022-07-11T13:58:11;19.40;99.90
16285;DHT22;8250;52.426;9.450;2022-07-11T14:00:51;19.40;99.90
16285;DHT22;8250;52.426;9.450;2022-07-11T14:03:18;19.50;99.90
16285;DHT22;8250;52.426;9.450;2022-07-11T14:05:45;19.40;99.90
16285;DHT22;8250;52.426;9.450;2022-07-11T14:08:12;19.30;99.90
16285;DHT22;8250;52.426;9.450;2022-07-11T14:10:40;19.30;99.90
16285;DHT22;8250;52.426;9.450;2022-07-11T14:13:07;19.20;99.90
16285;DHT22;8250;52.426;9.450;2022-07-11T14:15:35;19.10;99.90
16285;DHT22;8250;52.426;9.450;2022-07-11T14:18:04;19.00;99.90
16285;DHT22;8250;52.426;9.450;2022-07-11T14:20:30;19.00;99.90
16285;DHT22;8250;52.426;9.450;2022-07-11T14:22:57;19.00;99.90
16285;DHT22;8250;52.426;9.450;2022-07-11T14:25:24;19.00;99.90
16285;DHT22;8250;52.426;9.450;2022-07-11T14:27:51;19.00;99.90
16285;DHT22;8250;52.426;9.450;2022-07-11T14:30:18;19.10;99.90
16285;DHT22;8250;52.426;9.450;2022-07-11T14:32:46;19.00;99.90
16285;DHT22;8250;52.426;9.450;2022-07-11T14:35:13;19.10;99.90
16285;DHT22;8250;52.426;9.450;2022-07-11T14:37:40;19.10;99.90
16285;DHT22;8250;52.426;9.450;2022-07-11T14:40:08;19.20;99.90
16285;DHT22;8250;52.426;9.450;2022-07-11T14:42:35;19.20;99.90
16285;DHT22;8250;52.426;9.450;2022-07-11T14:45:03;19.20;99.90
16285;DHT22;8250;52.426;9.450;2022-07-11T14:47:32;19.20;99.90
16285;DHT22;8250;52.426;9.450;2022-07-11T14:50:00;19.30;99.90
16285;DHT22;8250;52.426;9.450;2022-07-11T14:52:28;19.20;99.90
16285;DHT22;8250;52.426;9.450;2022-07-11T14:54:55;19.20;99.90
16285;DHT22;8250;52.426;9.450;2022-07-11T14:57:22;19.20;99.90
16285;DHT22;8250;52.426;9.450;2022-07-11T14:59:49;19.20;99.90
16285;DHT22;8250;52.426;9.450;2022-07-11T15:02:16;19.30;99.90
16285;DHT22;8250;52.426;9.450;2022-07-11T15:05:06;19.30;99.90
16285;DHT22;8250;52.426;9.450;2022-07-11T15:07:33;19.30;99.90
16285;DHT22;8250;52.426;9.450;2022-07-11T15:10:17;19.30;99.90
16285;DHT22;8250;52.426;9.450;2022-07-11T15:13:01;19.30;99.90
16285;DHT22;8250;52.426;9.450;2022-07-11T15:15:28;19.30;99.90
16285;DHT22;8250;52.426;9.450;2022-07-11T15:17:56;19.20;99.90
16285;DHT22;8250;52.426;9.450;2022-07-11T15:20:24;19.20;99.90
16285;DHT22;8250;52.426;9.450;2022-07-11T15:22:51;19.20;99.90
16285;DHT22;8250;52.426;9.450;2022-07-11T15:25:19;19.30;99.90
16285;DHT22;8250;52.426;9.450;2022-07-11T15:27:46;19.30;99.90
16285;DHT22;8250;52.426;9.450;2022-07-11T15:30:13;19.30;99.90
16285;DHT22;8250;52.426;9.450;2022-07-11T15:32:42;19.30;99.90
16285;DHT22;8250;52.426;9.450;2022-07-11T15:35:10;19.40;99.90
16285;DHT22;8250;52.426;9.450;2022-07-11T15:37:38;19.40;99.90
16285;DHT22;8250;52.426;9.450;2022-07-11T15:40:05;19.40;99.90
16285;DHT22;8250;52.426;9.450;2022-07-11T15:42:32;19.30;99.90
16285;DHT22;8250;52.426;9.450;2022-07-11T15:44:59;19.30;99.90
16285;DHT22;8250;52.426;9.450;2022-07-11T15:47:26;19.40;99.90
16285;DHT22;8250;52.426;9.450;2022-07-11T15:49:53;19.40;99.90
16285;DHT22;8250;52.426;9.450;2022-07-11T15:52:20;19.40;99.90
16285;DHT22;8250;52.426;9.450;2022-07-11T15:54:48;19.40;99.90
16285;DHT22;8250;52.426;9.450;2022-07-11T15:57:15;19.40;99.90
16285;DHT22;8250;52.426;9.450;2022-07-11T15:59:42;19.50;99.90